Saltillo, Arkansas
Current Conditions -  °F | °C
As of 5:58 PM on Wednesday 22 Oct 2014 (Local Time) from KLRF Reporting Station
Clear Clear  
Wind Chill: 66°   Ceiling: Unl
Heat Index: 66°   Visibility: 10mi
Dew Point: 48°   Wind: 8mph
Humidity: 53%   Direction: 70°ENE
Pressure: 30.16"   Gusts: NA
Location:  35.0822°N, 92.366°W
Report Text: KLRF 222258Z AUTO 07007KT 10SM CLR 19/09 A3016 RMK AO2 SLP216 T01890090 $
Loading
Personal Weather Stations






























Interactive Weather Map
Tropical Storm Tracking
New forecast layout! Learn more

10-Day Weather Forecast

Advertisements
Track Severe Weather on mobile